createdAt,value
2023-04-07T00:01:58.381Z,98107.97
2023-04-07T00:04:28.943Z,98111.59
2023-04-07T00:06:59.123Z,98110.81
2023-04-07T00:09:29.438Z,98103.69
2023-04-07T00:12:02.091Z,98099.28
2023-04-07T00:14:34.767Z,98094.69
2023-04-07T00:17:05.020Z,98089.50
2023-04-07T00:19:36.480Z,98094.88
2023-04-07T00:22:06.623Z,98097.06
2023-04-07T00:24:37.640Z,98083.44
2023-04-07T00:27:10.272Z,98083.78
2023-04-07T00:29:44.297Z,98073.97
2023-04-07T00:32:14.669Z,98074.28
2023-04-07T00:34:45.589Z,98077.28
2023-04-07T00:37:15.791Z,98073.66
2023-04-07T00:39:46.489Z,98076.53
2023-04-07T00:42:17.102Z,98069.06
2023-04-07T00:44:50.732Z,98067.63
2023-04-07T00:47:23.642Z,98066.06
2023-04-07T00:49:53.964Z,98058.63
2023-04-07T00:52:29.047Z,98057.84
2023-04-07T00:55:00.625Z,98050.75
2023-04-07T00:57:32.207Z,98047.41
2023-04-07T01:00:07.076Z,98045.84
2023-04-07T01:02:44.695Z,98042.34
2023-04-07T01:05:20.260Z,98034.63
2023-04-07T01:08:01.879Z,98031.94
2023-04-07T01:10:46.254Z,98033.50
2023-04-07T01:13:27.433Z,98030.03
2023-04-07T01:16:12.567Z,98033.50
2023-04-07T01:18:51.277Z,98024.81
2023-04-07T01:21:22.702Z,98024.34
2023-04-07T01:24:23.879Z,98013.28
2023-04-07T01:26:54.767Z,98009.63
2023-04-07T01:29:36.642Z,98015.16
2023-04-07T01:32:09.105Z,98006.63
2023-04-07T01:34:41.609Z,98011.69
2023-04-07T01:37:12.707Z,98008.69
2023-04-07T01:39:43.323Z,98010.41
2023-04-07T01:42:14.740Z,98007.88
2023-04-07T01:44:49.069Z,98009.19
2023-04-07T01:47:19.875Z,98001.59
2023-04-07T01:49:51.593Z,98000.78
2023-04-07T01:52:23.139Z,98000.19
2023-04-07T01:54:53.467Z,97995.59
2023-04-07T01:57:24.217Z,97991.78
2023-04-07T02:00:02.236Z,97990.06
2023-04-07T02:02:49.751Z,97989.75
2023-04-07T02:05:23.389Z,97990.81
2023-04-07T02:07:57.018Z,97991.94
2023-04-07T02:10:30.188Z,97987.03
2023-04-07T02:13:05.078Z,97983.25
2023-04-07T02:15:40.039Z,97977.22
2023-04-07T02:18:13.131Z,97985.16
2023-04-07T02:20:45.558Z,97985.47
2023-04-07T02:23:16.803Z,97978.84
2023-04-07T02:25:47.230Z,97973.28
2023-04-07T02:28:17.399Z,97972.03
2023-04-07T02:30:51.655Z,97975.97
2023-04-07T02:33:21.831Z,97974.69
2023-04-07T02:35:52.124Z,97979.91
2023-04-07T02:38:22.490Z,97967.75
2023-04-07T02:40:52.915Z,97963.00
2023-04-07T02:43:24.268Z,97967.75
2023-04-07T02:45:57.465Z,97960.97
2023-04-07T02:48:27.831Z,97956.22
2023-04-07T02:50:58.186Z,97956.63
2023-04-07T02:53:28.555Z,97949.69
2023-04-07T02:55:58.946Z,97959.50
2023-04-07T02:58:28.947Z,97952.53
2023-04-07T03:01:01.796Z,97946.34
2023-04-07T03:03:35.064Z,97948.06
2023-04-07T03:06:16.479Z,97951.66
2023-04-07T03:09:03.511Z,97938.41
2023-04-07T03:11:33.782Z,97936.72
2023-04-07T03:14:04.638Z,97940.69
2023-04-07T03:16:38.691Z,97932.03
2023-04-07T03:19:12.509Z,97936.19
2023-04-07T03:21:46.975Z,97938.69
2023-04-07T03:24:17.355Z,97938.03
2023-04-07T03:26:49.412Z,97927.91
2023-04-07T03:29:29.527Z,97925.41
2023-04-07T03:32:02.903Z,97926.31
2023-04-07T03:34:32.939Z,97923.00
2023-04-07T03:37:02.981Z,97928.50
2023-04-07T03:39:37.552Z,97932.97
2023-04-07T03:42:16.163Z,97927.22
2023-04-07T03:44:47.502Z,97919.31
2023-04-07T03:47:20.996Z,97917.19
2023-04-07T03:49:56.331Z,97915.13
2023-04-07T03:52:26.753Z,97919.97
2023-04-07T03:55:04.170Z,97913.13
2023-04-07T03:57:35.729Z,97916.63
2023-04-07T04:00:08.525Z,97906.16
2023-04-07T04:02:49.096Z,97909.00
2023-04-07T04:05:23.333Z,97912.13
2023-04-07T04:07:54.146Z,97909.28
2023-04-07T04:10:26.358Z,97918.44
2023-04-07T04:13:00.868Z,97907.34
2023-04-07T04:15:30.961Z,97902.00
2023-04-07T04:18:04.928Z,97905.16
2023-04-07T04:20:37.527Z,97899.97
2023-04-07T04:23:09.151Z,97899.16
2023-04-07T04:25:41.068Z,97898.06
2023-04-07T04:28:14.033Z,97899.75
2023-04-07T04:30:45.316Z,97900.19
2023-04-07T04:33:18.236Z,97894.78
2023-04-07T04:35:56.891Z,97898.63
2023-04-07T04:38:28.443Z,97897.78
2023-04-07T04:41:07.720Z,97897.44
2023-04-07T04:43:37.941Z,97890.97
2023-04-07T04:46:09.233Z,97894.91
2023-04-07T04:48:46.929Z,97898.84
2023-04-07T04:51:17.344Z,97900.59
2023-04-07T04:53:51.567Z,97905.66
2023-04-07T04:56:22.071Z,97902.56
2023-04-07T04:58:53.758Z,97908.34
2023-04-07T05:01:47.231Z,97903.50
2023-04-07T05:04:22.899Z,97897.16
2023-04-07T05:07:01.674Z,97896.38
2023-04-07T05:09:34.683Z,97907.06
2023-04-07T05:12:05.618Z,97899.16
2023-04-07T05:14:41.203Z,97900.75
2023-04-07T05:17:12.128Z,97905.66
2023-04-07T05:19:45.881Z,97897.16
2023-04-07T05:22:24.480Z,97900.28
2023-04-07T05:24:55.515Z,97895.69
2023-04-07T05:27:28.224Z,97900.44
2023-04-07T05:30:03.574Z,97901.66
2023-04-07T05:32:37.652Z,97893.66
2023-04-07T05:35:18.075Z,97896.38
2023-04-07T05:37:54.441Z,97909.88
2023-04-07T05:40:25.077Z,97909.78
2023-04-07T05:42:55.637Z,97906.72
2023-04-07T05:45:26.453Z,97908.84
2023-04-07T05:47:56.690Z,97905.94
2023-04-07T05:50:37.478Z,97896.03
2023-04-07T05:53:11.311Z,97903.75
2023-04-07T05:55:41.475Z,97902.72
2023-04-07T05:58:13.539Z,97904.97
2023-04-07T06:00:47.202Z,97910.38
2023-04-07T06:03:20.483Z,97910.19
2023-04-07T06:06:16.268Z,97900.84
2023-04-07T06:08:46.447Z,97914.84
2023-04-07T06:11:16.589Z,97919.13
2023-04-07T06:13:46.948Z,97917.63
2023-04-07T06:16:18.305Z,97918.31
2023-04-07T06:18:50.077Z,97915.78
2023-04-07T06:21:23.026Z,97924.69
2023-04-07T06:23:53.409Z,97923.81
2023-04-07T06:26:24.046Z,97919.69
2023-04-07T06:28:54.462Z,97923.56
2023-04-07T06:31:24.862Z,97922.94
2023-04-07T06:33:56.147Z,97922.22
2023-04-07T06:36:29.207Z,97917.41
2023-04-07T06:38:59.375Z,97917.94
2023-04-07T06:41:29.535Z,97912.03
2023-04-07T06:43:59.605Z,97916.50
2023-04-07T06:46:29.781Z,97916.75
2023-04-07T06:48:59.738Z,97911.16
2023-04-07T06:51:32.867Z,97907.47
2023-04-07T06:54:02.918Z,97906.94
2023-04-07T06:56:33.272Z,97908.16
2023-04-07T06:59:04.244Z,97904.47
2023-04-07T07:01:34.343Z,97908.03
2023-04-07T07:04:06.054Z,97907.13
2023-04-07T07:06:38.867Z,97910.00
2023-04-07T07:09:08.871Z,97904.22
2023-04-07T07:11:40.407Z,97905.50
2023-04-07T07:14:10.832Z,97892.16
2023-04-07T07:16:41.428Z,97897.97
2023-04-07T07:19:11.836Z,97901.44
2023-04-07T07:21:44.467Z,97897.00
2023-04-07T07:24:14.520Z,97903.25
2023-04-07T07:26:45.255Z,97910.63
2023-04-07T07:29:15.720Z,97914.09
2023-04-07T07:31:46.309Z,97912.22
2023-04-07T07:34:16.919Z,97916.22
2023-04-07T07:36:49.621Z,97913.56
2023-04-07T07:39:19.726Z,97917.13
2023-04-07T07:41:51.185Z,97915.41
2023-04-07T07:44:22.954Z,97923.41
2023-04-07T07:46:53.839Z,97929.13
2023-04-07T07:49:24.044Z,97915.59
2023-04-07T07:51:57.629Z,97921.84
2023-04-07T07:54:27.876Z,97927.06
2023-04-07T07:56:57.987Z,97924.59
2023-04-07T07:59:28.497Z,97922.69
2023-04-07T08:02:01.597Z,97923.94
2023-04-07T08:04:32.061Z,97922.91
2023-04-07T08:07:05.297Z,97917.97
2023-04-07T08:09:35.427Z,97918.75
2023-04-07T08:12:06.105Z,97920.16
2023-04-07T08:14:36.262Z,97913.41
2023-04-07T08:17:06.662Z,97914.28
2023-04-07T08:19:36.715Z,97913.19
2023-04-07T08:22:09.720Z,97918.72
2023-04-07T08:24:39.922Z,97922.59
2023-04-07T08:27:09.922Z,97921.53
2023-04-07T08:29:39.939Z,97920.19
2023-04-07T08:32:10.103Z,97912.06
2023-04-07T08:34:40.121Z,97916.72
2023-04-07T08:37:12.849Z,97910.53
2023-04-07T08:39:42.900Z,97914.69
2023-04-07T08:42:14.877Z,97913.84
2023-04-07T08:44:45.594Z,97904.22
2023-04-07T08:47:16.496Z,97902.66
2023-04-07T08:49:48.545Z,97904.50
2023-04-07T08:52:25.279Z,97913.50
2023-04-07T08:54:56.641Z,97914.56
2023-04-07T08:57:27.067Z,97911.03
2023-04-07T08:59:58.138Z,97913.59
2023-04-07T09:02:28.293Z,97913.88
2023-04-07T09:04:58.338Z,97911.69
2023-04-07T09:07:31.288Z,97914.16
2023-04-07T09:10:01.796Z,97915.22
2023-04-07T09:12:32.995Z,97919.28
2023-04-07T09:15:03.636Z,97918.56
2023-04-07T09:17:33.984Z,97921.63
2023-04-07T09:20:05.020Z,97915.63
2023-04-07T09:22:42.680Z,97910.34
2023-04-07T09:25:14.644Z,97913.06
2023-04-07T09:27:56.301Z,97912.25
2023-04-07T09:30:26.587Z,97907.56
2023-04-07T09:32:56.763Z,97926.81
2023-04-07T09:35:28.876Z,97916.56
2023-04-07T09:38:08.097Z,97910.59
2023-04-07T09:40:38.778Z,97904.78
2023-04-07T09:43:09.658Z,97904.03
2023-04-07T09:45:39.730Z,97909.97
2023-04-07T09:48:11.073Z,97911.06
2023-04-07T09:50:46.189Z,97908.78
2023-04-07T09:53:19.381Z,97912.31
2023-04-07T09:55:50.637Z,97908.94
2023-04-07T09:58:20.985Z,97905.03
2023-04-07T10:00:51.402Z,97904.56
2023-04-07T10:03:21.540Z,97908.22
2023-04-07T10:05:52.136Z,97906.94
2023-04-07T10:08:24.991Z,97907.66
2023-04-07T10:10:55.610Z,97906.44
2023-04-07T10:13:26.022Z,97902.34
2023-04-07T10:15:56.708Z,97906.19
2023-04-07T10:18:32.577Z,97900.31
2023-04-07T10:21:04.791Z,97903.03
2023-04-07T10:23:50.596Z,97898.22
2023-04-07T10:26:24.156Z,97899.41
2023-04-07T10:28:58.327Z,97906.25
2023-04-07T10:31:28.945Z,97906.38
2023-04-07T10:33:59.472Z,97905.94
2023-04-07T10:36:30.724Z,97906.09
2023-04-07T10:39:27.871Z,97916.06
2023-04-07T10:41:59.420Z,97907.22
2023-04-07T10:44:52.214Z,97899.66
2023-04-07T10:47:22.640Z,97903.66
2023-04-07T10:50:21.165Z,97906.09
2023-04-07T10:52:53.531Z,97905.34
2023-04-07T10:55:37.861Z,97911.22
2023-04-07T10:58:22.992Z,97910.13
2023-04-07T11:01:21.674Z,97911.31
2023-04-07T11:04:05.017Z,97908.03
2023-04-07T11:06:35.163Z,97912.66
2023-04-07T11:09:05.364Z,97918.09
2023-04-07T11:11:42.650Z,97906.44
2023-04-07T11:14:12.894Z,97908.59
2023-04-07T11:16:46.254Z,97905.56
2023-04-07T11:19:16.588Z,97908.72
2023-04-07T11:21:46.968Z,97902.44
2023-04-07T11:24:38.007Z,97910.47
2023-04-07T11:27:16.339Z,97906.81
2023-04-07T11:29:46.556Z,97910.47
2023-04-07T11:32:16.876Z,97905.59
2023-04-07T11:34:46.987Z,97899.06
2023-04-07T11:37:23.852Z,97908.69
2023-04-07T11:39:57.899Z,97904.19
2023-04-07T11:42:43.421Z,97905.84
2023-04-07T11:45:21.022Z,97903.88
2023-04-07T11:47:51.323Z,97901.78
2023-04-07T11:50:42.419Z,97909.03
2023-04-07T11:53:13.056Z,97910.25
2023-04-07T11:55:43.321Z,97912.22
2023-04-07T11:58:16.364Z,97909.28
2023-04-07T12:00:57.414Z,97910.59
2023-04-07T12:03:27.651Z,97912.91
2023-04-07T12:05:57.863Z,97907.44
2023-04-07T12:08:43.187Z,97912.59
2023-04-07T12:11:15.246Z,97905.69
2023-04-07T12:13:48.087Z,97918.22
2023-04-07T12:16:18.271Z,97917.16
2023-04-07T12:18:48.847Z,97920.28
2023-04-07T12:21:18.986Z,97915.16
2023-04-07T12:23:50.292Z,97923.91
2023-04-07T12:26:23.394Z,97923.56
2023-04-07T12:28:56.779Z,97926.81
2023-04-07T12:31:27.024Z,97933.75
2023-04-07T12:33:57.170Z,97926.94
2023-04-07T12:36:27.809Z,97932.28
2023-04-07T12:38:58.108Z,97935.28
2023-04-07T12:41:28.764Z,97939.31
2023-04-07T12:44:01.408Z,97937.78
2023-04-07T12:46:31.732Z,97937.78
2023-04-07T12:49:01.936Z,97942.88
2023-04-07T12:51:33.596Z,97946.81
2023-04-07T12:54:04.056Z,97948.00
2023-04-07T12:56:34.078Z,97947.59
2023-04-07T12:59:06.828Z,97948.78
2023-04-07T13:01:37.540Z,97954.28
2023-04-07T13:04:07.952Z,97952.84
2023-04-07T13:06:38.361Z,97957.47
2023-04-07T13:09:08.352Z,97958.34
2023-04-07T13:11:38.766Z,97956.38
2023-04-07T13:14:11.546Z,97959.34
2023-04-07T13:16:41.725Z,97957.66
2023-04-07T13:19:15.243Z,97955.84
2023-04-07T13:21:47.393Z,97957.63
2023-04-07T13:24:18.675Z,97958.41
2023-04-07T13:26:50.326Z,97961.66
2023-04-07T13:29:23.105Z,97963.06
2023-04-07T13:31:53.118Z,97952.38
2023-04-07T13:34:23.153Z,97955.16
2023-04-07T13:36:53.501Z,97942.94
2023-04-07T13:39:23.984Z,97940.13
2023-04-07T13:41:54.130Z,97935.94
2023-04-07T13:44:27.791Z,97935.91
2023-04-07T13:46:59.646Z,97941.06
2023-04-07T13:49:29.952Z,97935.75
2023-04-07T13:52:00.003Z,97936.16
2023-04-07T13:54:30.399Z,97928.44
2023-04-07T13:57:00.751Z,97927.38
2023-04-07T13:59:33.530Z,97936.94
2023-04-07T14:02:03.728Z,97929.63
2023-04-07T14:04:34.058Z,97925.31
2023-04-07T14:07:05.203Z,97929.38
2023-04-07T14:09:35.607Z,97938.50
2023-04-07T14:12:05.610Z,97934.31
2023-04-07T14:14:39.129Z,97928.13
2023-04-07T14:17:10.308Z,97923.06
2023-04-07T14:19:41.146Z,97930.09
2023-04-07T14:22:11.484Z,97927.59
2023-04-07T14:24:41.679Z,97932.28
2023-04-07T14:27:17.212Z,97943.50
2023-04-07T14:29:50.224Z,97932.91
2023-04-07T14:32:20.294Z,97935.00
2023-04-07T14:34:50.616Z,97936.03
2023-04-07T14:37:24.281Z,97944.19
2023-04-07T14:40:01.990Z,97943.56
2023-04-07T14:42:33.690Z,97941.56
2023-04-07T14:45:06.702Z,97939.19
2023-04-07T14:47:37.201Z,97938.84
2023-04-07T14:50:07.976Z,97937.94
2023-04-07T14:52:38.499Z,97938.28
2023-04-07T14:55:10.328Z,97943.56
2023-04-07T14:57:41.626Z,97950.09
2023-04-07T15:00:18.939Z,97937.59
2023-04-07T15:02:49.362Z,97945.06
2023-04-07T15:05:21.026Z,97945.91
2023-04-07T15:07:52.961Z,97941.81
2023-04-07T15:10:23.277Z,97945.31
2023-04-07T15:12:53.916Z,97944.41
2023-04-07T15:15:27.743Z,97946.13
2023-04-07T15:17:57.768Z,97951.88
2023-04-07T15:20:28.508Z,97950.66
2023-04-07T15:23:00.594Z,97953.16
2023-04-07T15:25:30.739Z,97943.69
2023-04-07T15:28:06.575Z,97952.44
2023-04-07T15:30:39.380Z,97944.72
2023-04-07T15:33:09.770Z,97954.94
2023-04-07T15:35:40.286Z,97955.81
2023-04-07T15:38:10.717Z,97953.22
2023-04-07T15:40:41.287Z,97949.97
2023-04-07T15:43:11.644Z,97957.56
2023-04-07T15:45:47.119Z,97966.47
2023-04-07T15:48:17.806Z,97957.38
2023-04-07T15:50:48.132Z,97952.47
2023-04-07T15:53:18.762Z,97959.38
2023-04-07T15:55:48.930Z,97963.66
2023-04-07T15:58:19.218Z,97960.97
2023-04-07T16:00:52.238Z,97964.88
2023-04-07T16:03:22.421Z,97963.88
2023-04-07T16:06:00.188Z,97974.72
2023-04-07T16:08:30.588Z,97966.06
2023-04-07T16:11:01.033Z,97975.09
2023-04-07T16:13:31.297Z,97973.91
2023-04-07T16:16:03.934Z,97980.59
2023-04-07T16:18:35.358Z,97983.31
2023-04-07T16:21:05.833Z,97978.41
2023-04-07T16:23:36.172Z,97977.84
2023-04-07T16:26:08.120Z,97982.16
2023-04-07T16:28:39.299Z,97980.59
2023-04-07T16:31:12.938Z,97980.19
2023-04-07T16:33:42.936Z,97979.00
2023-04-07T16:36:13.248Z,97985.13
2023-04-07T16:38:43.500Z,97986.88
2023-04-07T16:41:13.614Z,97992.56
2023-04-07T16:43:43.671Z,97989.22
2023-04-07T16:46:16.454Z,97989.59
2023-04-07T16:48:46.590Z,97998.59
2023-04-07T16:51:19.957Z,97990.50
2023-04-07T16:53:50.205Z,98004.72
2023-04-07T16:56:21.636Z,98004.00
2023-04-07T16:58:52.146Z,97997.09
2023-04-07T17:01:26.292Z,98001.81
2023-04-07T17:03:57.162Z,98005.88
2023-04-07T17:06:27.727Z,98011.47
2023-04-07T17:09:00.263Z,98013.81
2023-04-07T17:11:30.858Z,98013.38
2023-04-07T17:14:01.251Z,98013.50
2023-04-07T17:16:33.913Z,98022.63
2023-04-07T17:19:04.532Z,98023.38
2023-04-07T17:21:34.878Z,98025.56
2023-04-07T17:24:06.980Z,98026.28
2023-04-07T17:26:37.466Z,98032.41
2023-04-07T17:29:08.044Z,98031.31
2023-04-07T17:31:41.036Z,98043.59
2023-04-07T17:34:11.152Z,98041.47
2023-04-07T17:36:42.207Z,98042.25
2023-04-07T17:39:12.620Z,98053.22
2023-04-07T17:41:43.052Z,98053.41
2023-04-07T17:44:13.695Z,98054.25
2023-04-07T17:46:46.945Z,98050.56
2023-04-07T17:49:17.728Z,98053.47
2023-04-07T17:51:47.761Z,98057.03
2023-04-07T17:54:18.190Z,98062.31
2023-04-07T17:56:48.479Z,98061.28
2023-04-07T17:59:19.191Z,98071.78
2023-04-07T18:01:52.223Z,98068.31
2023-04-07T18:04:22.967Z,98069.09
2023-04-07T18:06:54.882Z,98076.34
2023-04-07T18:09:24.919Z,98079.94
2023-04-07T18:11:55.854Z,98085.09
2023-04-07T18:14:26.232Z,98091.91
2023-04-07T18:16:59.044Z,98088.28
2023-04-07T18:19:30.125Z,98095.81
2023-04-07T18:22:01.167Z,98102.19
2023-04-07T18:24:31.734Z,98098.88
2023-04-07T18:27:03.032Z,98107.91
2023-04-07T18:29:33.846Z,98103.00
2023-04-07T18:32:06.699Z,98114.56
2023-04-07T18:34:37.114Z,98119.03
2023-04-07T18:37:07.357Z,98122.38
2023-04-07T18:39:37.604Z,98139.50
2023-04-07T18:42:08.160Z,98138.25
2023-04-07T18:44:38.436Z,98143.34
2023-04-07T18:47:11.916Z,98139.06
2023-04-07T18:49:43.793Z,98143.88
2023-04-07T18:52:14.006Z,98140.97
2023-04-07T18:54:44.006Z,98150.91
2023-04-07T18:57:14.454Z,98153.69
2023-04-07T18:59:45.173Z,98156.41
2023-04-07T19:02:18.133Z,98161.22
2023-04-07T19:04:49.753Z,98164.81
2023-04-07T19:07:19.831Z,98170.19
2023-04-07T19:09:53.191Z,98174.03
2023-04-07T19:12:23.384Z,98178.59
2023-04-07T19:14:53.433Z,98175.69
2023-04-07T19:17:26.649Z,98179.63
2023-04-07T19:19:56.965Z,98180.00
2023-04-07T19:22:27.449Z,98192.78
2023-04-07T19:24:57.417Z,98186.84
2023-04-07T19:27:27.899Z,98193.22
2023-04-07T19:29:58.057Z,98199.44
2023-04-07T19:32:31.758Z,98196.72
2023-04-07T19:35:02.027Z,98198.56
2023-04-07T19:37:32.003Z,98200.59
2023-04-07T19:40:03.239Z,98204.00
2023-04-07T19:42:33.812Z,98208.47
2023-04-07T19:45:07.477Z,98206.34
2023-04-07T19:47:41.992Z,98211.06
2023-04-07T19:50:14.539Z,98208.44
2023-04-07T19:52:45.805Z,98211.75
2023-04-07T19:55:16.522Z,98218.75
2023-04-07T19:57:47.508Z,98215.19
2023-04-07T20:00:19.163Z,98221.66
2023-04-07T20:02:55.700Z,98219.25
2023-04-07T20:05:26.126Z,98223.63
2023-04-07T20:07:56.945Z,98221.75
2023-04-07T20:10:27.031Z,98217.06
2023-04-07T20:12:58.238Z,98222.78
2023-04-07T20:15:28.341Z,98225.38
2023-04-07T20:18:01.861Z,98229.66
2023-04-07T20:20:31.979Z,98228.00
2023-04-07T20:23:02.409Z,98235.88
2023-04-07T20:25:32.472Z,98238.41
2023-04-07T20:28:02.754Z,98241.22
2023-04-07T20:30:33.149Z,98236.28
2023-04-07T20:33:06.765Z,98235.00
2023-04-07T20:35:37.698Z,98230.50
2023-04-07T20:38:08.263Z,98237.72
2023-04-07T20:40:38.768Z,98237.53
2023-04-07T20:43:09.815Z,98245.16
2023-04-07T20:45:40.311Z,98243.56
2023-04-07T20:48:13.404Z,98243.47
2023-04-07T20:50:43.496Z,98242.25
2023-04-07T20:53:13.946Z,98244.50
2023-04-07T20:55:44.430Z,98234.44
2023-04-07T20:58:14.611Z,98245.81
2023-04-07T21:00:44.742Z,98245.19
2023-04-07T21:03:17.781Z,98246.50
2023-04-07T21:05:50.134Z,98248.75
2023-04-07T21:08:21.245Z,98256.13
2023-04-07T21:10:52.468Z,98258.63
2023-04-07T21:13:23.592Z,98261.50
2023-04-07T21:15:53.763Z,98257.28
2023-04-07T21:18:27.695Z,98253.44
2023-04-07T21:20:59.521Z,98257.25
2023-04-07T21:23:31.390Z,98261.72
2023-04-07T21:26:04.643Z,98259.00
2023-04-07T21:28:34.774Z,98260.09
2023-04-07T21:31:06.342Z,98268.28
2023-04-07T21:33:39.738Z,98258.81
2023-04-07T21:36:10.243Z,98262.97
2023-04-07T21:38:40.479Z,98256.66
2023-04-07T21:41:10.725Z,98259.72
2023-04-07T21:43:40.722Z,98256.31
2023-04-07T21:46:11.163Z,98255.28
2023-04-07T21:48:43.849Z,98257.50
2023-04-07T21:51:13.971Z,98254.66
2023-04-07T21:53:44.343Z,98248.81
2023-04-07T21:56:14.386Z,98252.91
2023-04-07T21:58:46.732Z,98258.75
2023-04-07T22:01:17.547Z,98254.03
2023-04-07T22:03:50.808Z,98248.16
2023-04-07T22:06:21.091Z,98254.22
2023-04-07T22:09:00.557Z,98257.53
2023-04-07T22:11:31.970Z,98261.63
2023-04-07T22:14:02.229Z,98262.28
2023-04-07T22:16:32.381Z,98257.50
2023-04-07T22:19:06.111Z,98264.47
2023-04-07T22:21:36.802Z,98270.16
2023-04-07T22:24:07.029Z,98265.94
2023-04-07T22:26:37.198Z,98268.50
2023-04-07T22:29:09.732Z,98267.88
2023-04-07T22:31:39.694Z,98267.38
2023-04-07T22:34:12.512Z,98267.91
2023-04-07T22:36:42.448Z,98264.75
2023-04-07T22:39:12.549Z,98267.38
2023-04-07T22:41:42.900Z,98266.78
2023-04-07T22:44:13.279Z,98266.16
2023-04-07T22:46:43.375Z,98260.69
2023-04-07T22:49:16.599Z,98264.09
2023-04-07T22:51:48.660Z,98264.09
2023-04-07T22:54:19.230Z,98267.28
2023-04-07T22:56:49.641Z,98264.09
2023-04-07T22:59:20.039Z,98265.38
2023-04-07T23:01:50.032Z,98262.19
2023-04-07T23:04:25.402Z,98264.31
2023-04-07T23:06:56.486Z,98266.56
2023-04-07T23:09:28.870Z,98265.97
2023-04-07T23:12:02.092Z,98265.97
2023-04-07T23:14:32.544Z,98275.22
2023-04-07T23:17:03.664Z,98277.13
2023-04-07T23:19:36.628Z,98275.09
2023-04-07T23:22:06.696Z,98283.78
2023-04-07T23:24:36.793Z,98290.44
2023-04-07T23:27:07.090Z,98283.78
2023-04-07T23:29:37.196Z,98286.56
2023-04-07T23:32:07.609Z,98295.63
2023-04-07T23:34:40.401Z,98301.63
2023-04-07T23:37:12.633Z,98289.78
2023-04-07T23:39:42.933Z,98297.69
2023-04-07T23:42:13.485Z,98301.03
2023-04-07T23:44:43.828Z,98301.19
2023-04-07T23:47:13.856Z,98300.38
2023-04-07T23:49:46.577Z,98300.59
2023-04-07T23:52:17.147Z,98291.06
2023-04-07T23:54:47.826Z,98291.41
2023-04-07T23:57:17.970Z,98293.47
2023-04-07T23:59:47.903Z,98285.25
